Time;durP1;ratioP1;P1;durP2;ratioP2;P2;SDS_P1;SDS_P2;PMS_P1;PMS_P2;Temp;Humidity;BMP_temperature;BMP_pressure;BME280_temperature;BME280_humidity;BME280_pressure;Samples;Min_cycle;Max_cycle;Signal;HPM_P1;HPM_P2
2023/03/04 06:18:27;;;;;;;49.50;17.70;;;;;;;-0.89;88.03;98114.94;106725;1281;24299;-73
2023/03/04 06:21:00;;;;;;;55.00;19.30;;;;;;;-0.91;87.61;98120.38;106415;1287;24365;-73
2023/03/04 06:23:27;;;;;;;53.20;20.60;;;;;;;-0.93;88.08;98121.29;106161;1269;138645;-73
2023/03/04 06:25:56;;;;;;;46.50;19.60;;;;;;;-0.95;87.98;98122.79;106429;1287;25392;-73
2023/03/04 06:28:24;;;;;;;49.10;19.70;;;;;;;-0.94;87.87;98121.45;105924;1287;138511;-73
2023/03/04 06:30:52;;;;;;;55.40;21.60;;;;;;;-0.94;88.04;98123.38;106421;1287;22544;-73
2023/03/04 06:33:19;;;;;;;52.20;20.50;;;;;;;-0.95;88.00;98120.11;106526;1267;22566;-73
2023/03/04 06:35:47;;;;;;;47.80;20.20;;;;;;;-0.96;88.26;98110.59;106129;1286;138044;-73
2023/03/04 06:38:14;;;;;;;52.10;20.20;;;;;;;-0.95;88.08;98122.59;106183;1285;22636;-73
2023/03/04 06:40:41;;;;;;;56.90;22.40;;;;;;;-0.95;88.14;98121.36;106211;1286;138061;-73
2023/03/04 06:43:08;;;;;;;55.30;21.60;;;;;;;-0.93;87.92;98117.56;106186;1274;22611;-73
2023/03/04 06:45:38;;;;;;;54.00;21.20;;;;;;;-0.92;88.04;98119.02;106250;1278;140042;-73
2023/03/04 06:48:05;;;;;;;59.00;23.30;;;;;;;-0.91;88.38;98117.67;106246;1286;22659;-74
2023/03/04 06:50:32;;;;;;;58.40;23.30;;;;;;;-0.89;88.30;98118.56;106047;1287;25504;-74
2023/03/04 06:52:59;;;;;;;56.70;23.30;;;;;;;-0.89;88.34;98120.80;106214;1267;138116;-74
2023/03/04 06:55:26;;;;;;;57.80;22.50;;;;;;;-0.87;87.83;98115.59;106244;1286;25423;-73
2023/03/04 06:57:53;;;;;;;53.40;20.70;;;;;;;-0.85;88.16;98115.02;106133;1286;138246;-74
2023/03/04 07:00:22;;;;;;;65.10;24.30;;;;;;;-0.84;88.02;98114.34;106512;1271;25241;-74
2023/03/04 07:02:50;;;;;;;60.40;23.20;;;;;;;-0.83;87.81;98109.91;106144;1264;24505;-74
2023/03/04 07:05:17;;;;;;;49.30;20.70;;;;;;;-0.79;88.11;98114.63;106126;1286;140334;-74
2023/03/04 07:07:45;;;;;;;64.50;26.30;;;;;;;-0.74;88.32;98120.73;106273;1283;23071;-74
2023/03/04 07:10:12;;;;;;;57.40;24.00;;;;;;;-0.72;88.21;98120.73;106473;1286;139094;-74
2023/03/04 07:12:39;;;;;;;56.70;23.80;;;;;;;-0.67;88.19;98121.44;106050;1286;23339;-74
2023/03/04 07:15:06;;;;;;;60.00;22.70;;;;;;;-0.65;87.93;98126.86;106595;1270;24300;-74
2023/03/04 07:17:33;;;;;;;60.00;24.00;;;;;;;-0.62;87.74;98126.58;106493;1286;138686;-74
2023/03/04 07:20:00;;;;;;;58.40;24.10;;;;;;;-0.58;87.71;98132.98;106345;1287;22553;-74
2023/03/04 07:22:28;;;;;;;59.00;23.80;;;;;;;-0.54;87.74;98137.19;106244;1287;138274;-74
2023/03/04 07:24:55;;;;;;;60.10;25.10;;;;;;;-0.54;87.75;98140.64;106195;1280;22554;-74
2023/03/04 07:27:23;;;;;;;66.70;26.80;;;;;;;-0.54;87.64;98147.73;106347;1283;22741;-74
2023/03/04 07:29:50;;;;;;;59.90;23.50;;;;;;;-0.55;87.69;98147.00;107734;1280;138366;-74
2023/03/04 07:32:17;;;;;;;59.00;23.40;;;;;;;-0.59;87.16;98148.43;106016;1284;25423;-74
2023/03/04 07:34:44;;;;;;;63.40;22.70;;;;;;;-0.63;86.93;98149.80;106178;1271;138386;-74
2023/03/04 07:37:11;;;;;;;59.60;22.50;;;;;;;-0.66;86.58;98149.91;106261;1286;24286;-74
2023/03/04 07:39:39;;;;;;;57.80;23.80;;;;;;;-0.71;86.35;98153.48;106401;1281;138231;-75
2023/03/04 07:42:06;;;;;;;59.10;23.50;;;;;;;-0.74;86.31;98151.15;106181;1278;24220;-74
2023/03/04 07:44:34;;;;;;;55.80;21.70;;;;;;;-0.75;86.18;98147.75;106173;1271;22543;-74
2023/03/04 07:47:01;;;;;;;58.90;23.40;;;;;;;-0.77;86.53;98144.02;106068;1283;138412;-74
2023/03/04 07:49:29;;;;;;;65.80;25.40;;;;;;;-0.77;86.46;98148.55;106227;1276;22664;-74
2023/03/04 07:51:56;;;;;;;59.30;23.40;;;;;;;-0.76;86.69;98150.46;106286;1280;138398;-74
2023/03/04 07:54:23;;;;;;;53.40;23.00;;;;;;;-0.74;86.65;98152.95;106429;1264;25347;-74
2023/03/04 07:56:52;;;;;;;53.20;23.30;;;;;;;-0.71;86.73;98158.71;106314;1278;25349;-74
2023/03/04 07:59:19;;;;;;;57.10;23.20;;;;;;;-0.71;86.48;98162.38;106211;1262;138438;-74
2023/03/04 08:01:46;;;;;;;65.20;23.80;;;;;;;-0.71;86.40;98163.27;106513;1280;23389;-74
2023/03/04 08:04:14;;;;;;;52.80;19.90;;;;;;;-0.71;86.17;98166.52;106119;1270;138356;-74
2023/03/04 08:06:42;;;;;;;68.80;27.00;;;;;;;-0.71;86.26;98169.04;106508;1284;25423;-74
2023/03/04 08:09:12;;;;;;;54.90;22.00;;;;;;;-0.71;86.10;98164.85;106316;1279;22550;-74
2023/03/04 08:11:40;;;;;;;59.50;24.40;;;;;;;-0.69;86.02;98167.14;106964;1283;140085;-74
2023/03/04 08:14:09;;;;;;;62.90;24.30;;;;;;;-0.68;85.85;98167.50;107114;1262;23910;-74
2023/03/04 08:16:37;;;;;;;59.20;23.20;;;;;;;-0.65;85.81;98165.80;106188;1286;138629;-73
2023/03/04 08:19:05;;;;;;;50.20;19.60;;;;;;;-0.62;86.22;98163.60;106516;1278;24224;-74
2023/03/04 08:21:32;;;;;;;59.60;24.00;;;;;;;-0.61;85.25;98170.04;107376;1279;140351;-74
2023/03/04 08:24:06;;;;;;;47.80;21.00;;;;;;;-0.60;85.35;98168.03;106694;1286;22538;-73
2023/03/04 08:26:40;;;;;;;47.90;21.10;;;;;;;-0.59;85.15;98171.09;106358;1267;26658;-74
2023/03/04 08:29:09;;;;;;;50.20;21.00;;;;;;;-0.59;85.02;98168.13;106504;1283;138367;-73
2023/03/04 08:31:38;;;;;;;49.00;21.20;;;;;;;-0.59;84.89;98168.39;106065;1282;23475;-73
2023/03/04 08:34:09;;;;;;;52.00;21.60;;;;;;;-0.59;84.76;98166.08;105936;1286;138857;-74
2023/03/04 08:36:36;;;;;;;57.10;23.20;;;;;;;-0.58;84.52;98167.11;106107;1271;25420;-73
2023/03/04 08:39:04;;;;;;;54.70;22.00;;;;;;;-0.58;84.13;98159.96;106202;1287;22628;-73
2023/03/04 08:41:32;;;;;;;51.00;22.10;;;;;;;-0.58;84.47;98162.27;106017;1284;138184;-73
2023/03/04 08:43:59;;;;;;;55.30;22.70;;;;;;;-0.60;84.42;98156.36;106105;1286;22966;-73
2023/03/04 08:46:27;;;;;;;55.50;22.50;;;;;;;-0.59;84.15;98161.42;105964;1268;138731;-73
2023/03/04 08:48:55;;;;;;;51.30;23.30;;;;;;;-0.55;84.14;98163.54;106699;1280;22707;-73
2023/03/04 08:51:22;;;;;;;52.50;21.70;;;;;;;-0.55;83.97;98164.05;106338;1280;22208;-73
2023/03/04 08:53:49;;;;;;;47.30;22.00;;;;;;;-0.53;84.37;98166.14;106506;1270;140255;-73
2023/03/04 08:56:16;;;;;;;49.50;21.80;;;;;;;-0.51;83.89;98166.41;106890;1273;25366;-73
2023/03/04 08:58:43;;;;;;;50.00;22.00;;;;;;;-0.50;83.77;98161.85;107112;1284;138478;-73
2023/03/04 09:01:12;;;;;;;52.60;23.30;;;;;;;-0.48;83.67;98161.14;107447;1283;25442;-73
2023/03/04 09:03:40;;;;;;;48.50;21.40;;;;;;;-0.47;83.26;98158.83;107179;1280;139782;-73
2023/03/04 09:06:09;;;;;;;54.40;21.70;;;;;;;-0.44;83.29;98162.41;107557;1279;23911;-73
2023/03/04 09:08:36;;;;;;;48.70;21.80;;;;;;;-0.41;83.76;98167.64;107203;1280;23878;-72
2023/03/04 09:11:03;;;;;;;46.90;21.40;;;;;;;-0.40;82.92;98169.38;107265;1280;139725;-73
2023/03/04 09:13:31;;;;;;;44.80;20.90;;;;;;;-0.38;82.82;98172.75;108287;1270;22568;-73
2023/03/04 09:15:58;;;;;;;44.20;22.30;;;;;;;-0.36;82.52;98168.81;108609;1270;139125;-73
2023/03/04 09:18:26;;;;;;;49.00;23.20;;;;;;;-0.34;82.73;98172.34;107533;1280;26171;-72
2023/03/04 09:20:53;;;;;;;43.60;22.50;;;;;;;-0.33;82.43;98169.15;107716;1283;22575;-72
2023/03/04 09:23:21;;;;;;;45.30;21.50;;;;;;;-0.31;82.62;98163.55;107169;1284;138716;-72
2023/03/04 09:25:48;;;;;;;43.90;22.30;;;;;;;-0.30;82.41;98170.36;106508;1263;22538;-72
2023/03/04 09:28:17;;;;;;;42.40;20.40;;;;;;;-0.27;81.83;98172.55;108291;1284;138914;-73
2023/03/04 09:30:44;;;;;;;44.90;21.50;;;;;;;-0.26;81.99;98173.44;108496;1274;22552;-73
2023/03/04 09:33:12;;;;;;;45.40;22.70;;;;;;;-0.23;82.04;98177.34;109127;1281;22425;-72
2023/03/04 09:35:39;;;;;;;48.60;21.40;;;;;;;-0.20;81.95;98172.03;108293;1284;138987;-73
2023/03/04 09:38:06;;;;;;;42.50;20.20;;;;;;;-0.16;81.72;98166.61;107764;1277;22177;-72
2023/03/04 09:40:44;;;;;;;41.70;19.70;;;;;;;-0.14;81.36;98168.46;107027;1281;139960;-71
2023/03/04 09:43:28;;;;;;;42.30;19.70;;;;;;;-0.13;81.09;98167.61;107916;1283;22181;-72
2023/03/04 09:45:59;;;;;;;41.20;19.30;;;;;;;-0.11;81.48;98163.81;106803;1283;138566;-72
2023/03/04 09:48:39;;;;;;;39.70;19.60;;;;;;;-0.07;81.34;98162.50;106730;1274;22852;-72
2023/03/04 09:51:33;;;;;;;34.60;17.70;;;;;;;-0.05;80.67;98161.17;107123;1278;22694;-71
2023/03/04 09:54:06;;;;;;;37.30;17.40;;;;;;;-0.03;80.59;98158.56;108648;1281;25401;-71
2023/03/04 09:56:37;;;;;;;42.00;18.50;;;;;;;-0.02;80.45;98153.23;106211;1264;22657;-71
2023/03/04 09:59:23;;;;;;;38.60;18.10;;;;;;;0.01;80.40;98150.10;105746;1286;138238;-71
2023/03/04 10:01:56;;;;;;;37.20;17.10;;;;;;;0.03;80.46;98148.02;106131;1286;24351;-71
2023/03/04 10:04:36;;;;;;;36.80;16.10;;;;;;;0.05;80.25;98142.98;106233;1287;137953;-71
2023/03/04 10:07:06;;;;;;;35.90;17.60;;;;;;;0.06;79.89;98151.35;106134;1268;25420;-71
2023/03/04 10:09:48;;;;;;;37.60;18.40;;;;;;;0.11;80.68;98144.45;106785;1284;22527;-70
2023/03/04 10:12:21;;;;;;;37.40;17.50;;;;;;;0.14;80.14;98144.38;106230;1286;22534;-70
2023/03/04 10:14:50;;;;;;;36.40;17.70;;;;;;;0.15;80.07;98142.30;106170;1286;25486;-70
2023/03/04 10:17:41;;;;;;;38.60;17.40;;;;;;;0.16;80.05;98141.69;105999;1276;138560;-70
2023/03/04 10:20:17;;;;;;;35.30;18.20;;;;;;;0.16;79.99;98136.89;106290;1287;22778;-70
2023/03/04 10:22:47;;;;;;;37.30;18.10;;;;;;;0.14;79.95;98130.99;106116;1287;138454;-70
2023/03/04 10:25:22;;;;;;;37.60;18.50;;;;;;;0.11;79.86;98131.02;106155;1265;22590;-70
2023/03/04 10:27:51;;;;;;;41.60;20.00;;;;;;;0.11;79.97;98131.92;105968;1280;138466;-71
2023/03/04 10:30:38;;;;;;;35.00;18.40;;;;;;;0.09;79.91;98130.31;106071;1286;22589;-70
2023/03/04 10:33:26;;;;;;;44.30;20.30;;;;;;;0.09;80.44;98130.73;106121;1286;22540;-70
2023/03/04 10:36:04;;;;;;;39.30;18.90;;;;;;;0.09;80.21;98126.46;106019;1286;138010;-70
2023/03/04 10:38:35;;;;;;;41.20;20.40;;;;;;;0.09;80.41;98125.44;106011;1270;23298;-70
2023/03/04 10:41:16;;;;;;;37.80;17.70;;;;;;;0.08;80.41;98124.65;106199;1287;138715;-70
2023/03/04 10:43:49;;;;;;;39.20;20.30;;;;;;;0.08;80.78;98127.13;106068;1287;22553;-70
2023/03/04 10:46:16;;;;;;;44.40;20.50;;;;;;;0.08;80.56;98118.02;106020;1287;138147;-70
2023/03/04 10:48:44;;;;;;;43.20;21.40;;;;;;;0.08;80.55;98116.05;106087;1286;24235;-70
2023/03/04 10:51:11;;;;;;;40.00;20.70;;;;;;;0.09;80.95;98117.90;106120;1284;25169;-70
2023/03/04 10:53:42;;;;;;;40.70;21.90;;;;;;;0.11;80.93;98109.86;106058;1287;139197;-70
2023/03/04 10:56:31;;;;;;;42.70;21.40;;;;;;;0.13;80.86;98107.95;106072;1286;22727;-70
2023/03/04 10:59:36;;;;;;;45.30;21.00;;;;;;;0.17;81.11;98108.08;105970;1270;138425;-70
2023/03/04 11:02:14;;;;;;;40.30;19.70;;;;;;;0.21;81.02;98101.33;106078;1287;22497;-70
2023/03/04 11:04:40;;;;;;;41.50;21.40;;;;;;;0.23;80.87;98101.61;106149;1287;138549;-70
2023/03/04 11:07:09;;;;;;;44.10;20.90;;;;;;;0.24;80.72;98098.11;106088;1286;22560;-70
2023/03/04 11:09:39;;;;;;;42.60;20.20;;;;;;;0.25;80.63;98102.94;106269;1268;22693;-70
2023/03/04 11:12:12;;;;;;;42.30;21.30;;;;;;;0.28;81.11;98098.61;106153;1286;25236;-70
2023/03/04 11:14:45;;;;;;;45.80;20.90;;;;;;;0.31;81.05;98093.38;106205;1286;22594;-70
2023/03/04 11:17:17;;;;;;;46.40;22.70;;;;;;;0.35;81.07;98095.11;105954;1286;138411;-70
2023/03/04 11:19:47;;;;;;;55.40;24.90;;;;;;;0.37;80.89;98091.95;106214;1286;22652;-70
2023/03/04 11:22:19;;;;;;;54.20;25.10;;;;;;;0.39;81.10;98091.23;105838;1287;138418;-70
2023/03/04 11:24:55;;;;;;;67.40;29.90;;;;;;;0.41;81.35;98084.00;106251;1287;22544;-70
2023/03/04 11:27:37;;;;;;;66.40;28.20;;;;;;;0.47;81.13;98084.69;106132;1283;24386;-70
2023/03/04 11:30:23;;;;;;;63.50;27.10;;;;;;;0.45;80.86;98085.66;106192;1268;22541;-70
2023/03/04 11:32:55;;;;;;;62.70;28.20;;;;;;;0.41;81.16;98083.32;106138;1286;22537;-70
2023/03/04 11:35:28;;;;;;;67.60;27.40;;;;;;;0.37;81.41;98078.53;105992;1286;138617;-70
2023/03/04 11:38:03;;;;;;;65.70;28.70;;;;;;;0.34;81.31;98075.07;106144;1286;25271;-70
2023/03/04 11:40:48;;;;;;;58.70;26.40;;;;;;;0.32;81.62;98073.09;106079;1268;139003;-70
2023/03/04 11:43:34;;;;;;;66.20;28.10;;;;;;;0.31;81.79;98065.98;106079;1286;22657;-70
2023/03/04 11:46:13;;;;;;;71.70;30.60;;;;;;;0.30;82.16;98062.88;106014;1286;138220;-70
2023/03/04 11:48:45;;;;;;;68.20;30.60;;;;;;;0.28;82.26;98054.90;106208;1265;23411;-70
2023/03/04 11:51:22;;;;;;;66.30;28.30;;;;;;;0.26;82.38;98055.38;106126;1284;25418;-70
2023/03/04 11:53:55;;;;;;;66.90;27.70;;;;;;;0.25;82.65;98052.11;105887;1280;138587;-69
2023/03/04 11:56:58;;;;;;;63.40;27.00;;;;;;;0.22;82.72;98046.52;105860;1287;25339;-70
2023/03/04 11:59:49;;;;;;;68.90;28.70;;;;;;;0.17;82.74;98047.61;105948;1286;138400;-70
2023/03/04 12:02:20;;;;;;;69.90;27.50;;;;;;;0.15;83.10;98046.35;106065;1286;23364;-70
2023/03/04 12:05:15;;;;;;;83.80;33.20;;;;;;;0.13;83.24;98052.30;105995;1286;138123;-70
2023/03/04 12:08:20;;;;;;;70.30;30.30;;;;;;;0.09;83.36;98051.59;106233;1286;25483;-70
2023/03/04 12:11:10;;;;;;;69.30;30.90;;;;;;;0.03;83.47;98051.16;105978;1270;138468;-70
2023/03/04 12:14:03;;;;;;;68.40;28.20;;;;;;;-0.01;83.76;98048.20;106174;1277;22530;-70
2023/03/04 12:16:51;;;;;;;70.00;30.30;;;;;;;-0.05;83.88;98048.14;106257;1286;138130;-70
2023/03/04 12:19:37;;;;;;;84.70;40.30;;;;;;;-0.08;84.20;98042.45;106183;1265;24630;-70
2023/03/04 12:22:13;;;;;;;78.70;33.70;;;;;;;-0.10;84.29;98047.98;106019;1287;138335;-70
2023/03/04 12:24:57;;;;;;;70.90;30.50;;;;;;;-0.12;84.62;98046.38;106059;1287;24398;-70
2023/03/04 12:27:43;;;;;;;68.40;28.60;;;;;;;-0.12;84.68;98053.40;106065;1287;24217;-70
2023/03/04 12:30:49;;;;;;;62.90;27.00;;;;;;;-0.14;84.80;98050.88;106207;1286;25401;-70
2023/03/04 12:33:19;;;;;;;65.60;30.60;;;;;;;-0.15;84.85;98045.47;106211;1286;22547;-70
2023/03/04 12:36:23;;;;;;;71.70;32.20;;;;;;;-0.15;84.83;98049.21;106188;1286;140104;-70
2023/03/04 12:39:22;;;;;;;65.30;29.40;;;;;;;-0.13;85.03;98050.14;106237;1284;22560;-70
2023/03/04 12:42:20;;;;;;;61.40;26.60;;;;;;;-0.10;85.21;98049.70;106171;1287;138541;-70
2023/03/04 12:44:57;;;;;;;64.10;25.90;;;;;;;-0.07;85.45;98046.80;105516;1295;22565;-70
2023/03/04 12:47:36;;;;;;;57.20;25.20;;;;;;;-0.02;85.17;98041.62;105548;1294;139980;-70
2023/03/04 12:50:38;;;;;;;54.60;25.30;;;;;;;-0.00;85.24;98045.65;105613;1270;22550;-70
2023/03/04 12:53:12;;;;;;;68.60;28.10;;;;;;;0.02;85.19;98035.08;105608;1293;138994;-70
2023/03/04 12:55:43;;;;;;;62.00;28.40;;;;;;;0.05;85.04;98027.91;105800;1293;23813;-70
2023/03/04 12:58:18;;;;;;;59.70;27.50;;;;;;;0.07;85.20;98028.89;105581;1292;138437;-70
2023/03/04 13:00:50;;;;;;;58.70;27.10;;;;;;;0.08;85.00;98023.25;105691;1277;25344;-70
2023/03/04 13:03:31;;;;;;;60.90;25.00;;;;;;;0.09;85.09;98020.76;105786;1293;24375;-70
2023/03/04 13:06:20;;;;;;;62.20;27.70;;;;;;;0.11;84.91;98020.11;105581;1293;138022;-70
2023/03/04 13:08:58;;;;;;;65.20;28.70;;;;;;;0.12;85.07;98018.60;105977;1289;24217;-70
2023/03/04 13:11:25;;;;;;;59.90;27.80;;;;;;;0.14;85.06;98016.73;105563;1272;138516;-70
2023/03/04 13:14:03;;;;;;;68.80;30.50;;;;;;;0.17;85.09;98011.96;105766;1289;22586;-70
2023/03/04 13:16:32;;;;;;;57.50;26.90;;;;;;;0.20;85.09;98006.98;105562;1293;139240;-70
2023/03/04 13:18:59;;;;;;;58.10;25.30;;;;;;;0.22;85.01;98012.21;106000;1293;22587;-70
2023/03/04 13:21:31;;;;;;;57.00;25.50;;;;;;;0.26;84.99;98008.40;105729;1276;23119;-70
2023/03/04 13:24:36;;;;;;;59.00;25.10;;;;;;;0.29;84.92;98007.29;106225;1287;138446;-70
2023/03/04 13:27:41;;;;;;;50.90;25.60;;;;;;;0.31;84.77;98007.72;106233;1287;22651;-70
2023/03/04 13:30:31;;;;;;;49.50;24.40;;;;;;;0.33;84.71;98016.44;106242;1287;25063;-70
2023/03/04 13:32:58;;;;;;;;;;;;;;;0.34;84.73;98009.81;106239;1271;24214;-70
2023/03/04 13:35:50;;;;;;;58.40;26.00;;;;;;;0.38;84.98;98007.17;106495;1271;124499;-71
2023/03/04 13:38:17;;;;;;;55.50;25.30;;;;;;;0.45;84.88;98004.80;106755;1284;22543;-70
2023/03/04 13:41:21;;;;;;;53.30;24.80;;;;;;;0.48;84.80;98005.07;106410;1276;139254;-70
2023/03/04 13:43:53;;;;;;;56.50;24.70;;;;;;;0.52;84.56;98000.96;105953;1277;22537;-70
2023/03/04 13:46:22;;;;;;;54.30;22.70;;;;;;;0.55;84.32;97999.79;106116;1284;138734;-70
2023/03/04 13:48:49;;;;;;;55.80;25.10;;;;;;;0.56;84.04;97996.45;106037;1279;22544;-70
2023/03/04 13:51:30;;;;;;;49.20;22.40;;;;;;;0.57;83.88;97994.52;106184;1284;22540;-70
2023/03/04 13:53:57;;;;;;;45.20;21.10;;;;;;;0.58;84.05;97994.58;105799;1268;138382;-70
2023/03/04 13:56:35;;;;;;;50.90;23.50;;;;;;;0.59;83.94;97994.63;106176;1287;22555;-70
2023/03/04 13:59:31;;;;;;;51.80;22.70;;;;;;;0.60;83.68;97986.63;106096;1287;138278;-70
2023/03/04 14:02:14;;;;;;;54.20;23.40;;;;;;;0.61;83.78;97988.70;105991;1275;22554;-70
2023/03/04 14:04:45;;;;;;;44.00;21.60;;;;;;;0.60;83.68;97984.25;106009;1270;138864;-70
2023/03/04 14:07:28;;;;;;;46.70;21.50;;;;;;;0.61;83.52;97984.35;106340;1287;22531;-70
2023/03/04 14:10:21;;;;;;;48.80;22.20;;;;;;;0.62;83.74;97982.52;104370;1286;2341750;-70
2023/03/04 14:12:54;;;;;;;45.80;20.90;;;;;;;0.63;83.57;97987.95;106139;1271;24389;-70
2023/03/04 14:15:27;;;;;;;46.80;22.10;;;;;;;0.64;83.87;97982.92;106220;1287;22549;-70
2023/03/04 14:17:59;;;;;;;45.50;20.10;;;;;;;0.65;83.72;97987.77;106068;1287;138509;-70
2023/03/04 14:20:40;;;;;;;43.80;20.20;;;;;;;0.65;83.70;97987.39;106210;1287;25500;-70
2023/03/04 14:23:28;;;;;;;46.70;21.40;;;;;;;0.66;83.62;97984.05;106275;1268;138658;-70
2023/03/04 14:26:09;;;;;;;45.30;21.20;;;;;;;0.66;83.64;97982.98;105997;1287;25498;-70
2023/03/04 14:28:51;;;;;;;48.10;21.60;;;;;;;0.65;83.98;97987.95;106075;1287;139130;-70
2023/03/04 14:31:24;;;;;;;40.60;18.30;;;;;;;0.64;84.23;97984.50;106229;1287;23049;-70
2023/03/04 14:33:58;;;;;;;39.30;19.80;;;;;;;0.64;84.20;97989.68;106144;1287;141019;-70
2023/03/04 14:36:26;;;;;;;51.50;23.50;;;;;;;0.64;84.46;97987.45;106260;1287;22938;-70
2023/03/04 14:38:59;;;;;;;48.90;22.20;;;;;;;0.62;84.51;97988.55;106166;1285;22551;-70
2023/03/04 14:41:31;;;;;;;45.10;22.10;;;;;;;0.62;84.59;97986.45;106260;1277;138640;-70
2023/03/04 14:44:02;;;;;;;44.50;22.60;;;;;;;0.62;84.97;97986.95;106070;1276;22549;-70
2023/03/04 14:46:35;;;;;;;46.20;21.70;;;;;;;0.62;85.11;97982.16;106179;1287;138517;-70
2023/03/04 14:49:03;;;;;;;47.90;22.50;;;;;;;0.61;85.29;97982.32;106131;1279;22525;-70
2023/03/04 14:51:40;;;;;;;51.00;24.30;;;;;;;0.61;85.44;97977.25;106223;1276;22668;-70
2023/03/04 14:54:27;;;;;;;58.80;26.80;;;;;;;0.61;85.67;97974.61;106097;1270;138257;-70
2023/03/04 14:56:55;;;;;;;49.20;22.20;;;;;;;0.61;85.92;97975.81;106153;1287;22811;-70
2023/03/04 14:59:34;;;;;;;48.20;24.10;;;;;;;0.61;85.88;97978.29;106168;1287;138657;-70
2023/03/04 15:02:32;;;;;;;48.80;21.50;;;;;;;0.61;85.85;97972.19;106206;1287;25404;-70
2023/03/04 15:05:07;;;;;;;50.20;23.20;;;;;;;0.61;85.95;97972.80;106023;1287;138484;-70
2023/03/04 15:07:36;;;;;;;54.00;23.40;;;;;;;0.62;85.72;97974.79;106257;1287;22821;-70
2023/03/04 15:10:09;;;;;;;56.20;25.20;;;;;;;0.63;85.81;97968.45;106217;1287;138232;-70
2023/03/04 15:12:37;;;;;;;57.30;24.00;;;;;;;0.63;85.65;97970.74;106657;1277;22645;-70
2023/03/04 15:15:30;;;;;;;48.50;23.70;;;;;;;0.63;85.50;97972.48;106334;1287;23932;-70
2023/03/04 15:18:22;;;;;;;50.00;22.60;;;;;;;0.63;85.44;97970.59;106098;1287;140122;-70
2023/03/04 15:21:04;;;;;;;44.80;19.70;;;;;;;0.62;85.42;97973.62;106247;1286;22542;-70
2023/03/04 15:23:32;;;;;;;52.80;22.40;;;;;;;0.61;85.37;97974.23;106249;1286;137859;-70
2023/03/04 15:26:03;;;;;;;54.40;25.00;;;;;;;0.60;85.52;97970.57;106223;1275;24236;-70
2023/03/04 15:28:36;;;;;;;51.00;24.30;;;;;;;0.61;85.63;97970.23;106257;1286;138270;-70
2023/03/04 15:31:05;;;;;;;52.60;25.40;;;;;;;0.62;85.52;97968.02;106300;1286;22744;-69
2023/03/04 15:33:32;;;;;;;45.40;21.30;;;;;;;0.63;85.46;97966.67;106229;1286;22554;-69
2023/03/04 15:36:01;;;;;;;53.40;25.90;;;;;;;0.63;85.25;97963.79;106131;1268;138021;-69
2023/03/04 15:38:59;;;;;;;53.30;24.70;;;;;;;0.64;85.33;97968.86;106554;1287;22583;-69
2023/03/04 15:41:27;;;;;;;50.70;25.00;;;;;;;0.64;85.36;97967.39;106215;1282;138424;-70
2023/03/04 15:43:54;;;;;;;50.40;25.00;;;;;;;0.64;85.42;97968.75;106061;1287;25350;-69
2023/03/04 15:46:21;;;;;;;47.30;23.30;;;;;;;0.65;84.86;97967.27;106072;1287;138686;-69
2023/03/04 15:48:48;;;;;;;48.00;23.90;;;;;;;0.66;84.96;97968.97;106191;1287;23962;-69
2023/03/04 15:51:21;;;;;;;49.10;24.00;;;;;;;0.66;84.67;97967.52;106149;1287;22546;-69
2023/03/04 15:53:54;;;;;;;48.00;23.40;;;;;;;0.66;84.46;97965.52;106073;1287;138661;-69
2023/03/04 15:56:28;;;;;;;44.70;21.40;;;;;;;0.67;84.28;97967.08;106436;1266;22884;-69
2023/03/04 15:59:00;;;;;;;50.00;22.20;;;;;;;0.66;83.73;97960.15;106309;1284;138359;-69
2023/03/04 16:01:27;;;;;;;44.60;20.40;;;;;;;0.67;83.67;97950.37;106226;1278;24190;-69
2023/03/04 16:03:54;;;;;;;42.30;20.20;;;;;;;0.68;83.30;97946.68;106127;1286;138112;-69
2023/03/04 16:06:23;;;;;;;39.90;19.60;;;;;;;0.69;83.02;97951.02;106592;1269;25289;-69
2023/03/04 16:08:51;;;;;;;42.90;20.00;;;;;;;0.70;82.65;97948.60;106217;1287;23281;-69
2023/03/04 16:11:24;;;;;;;37.50;18.10;;;;;;;0.72;82.44;97950.88;105997;1287;138139;-69
2023/03/04 16:13:51;;;;;;;34.60;18.10;;;;;;;0.73;82.23;97951.05;106139;1287;25429;-69
2023/03/04 16:16:18;;;;;;;34.10;16.50;;;;;;;0.75;82.16;97961.54;106026;1268;138132;-69
2023/03/04 16:18:45;;;;;;;35.90;16.90;;;;;;;0.77;81.88;97954.14;106103;1286;24205;-70
2023/03/04 16:21:17;;;;;;;37.10;18.50;;;;;;;0.79;81.44;97952.83;106600;1286;22543;-69
2023/03/04 16:23:47;;;;;;;37.30;17.00;;;;;;;0.80;81.68;97956.58;106149;1286;137864;-69
2023/03/04 16:26:17;;;;;;;36.30;16.50;;;;;;;0.81;81.15;97957.91;106729;1266;22528;-70
2023/03/04 16:28:45;;;;;;;32.30;16.90;;;;;;;0.83;80.93;97957.50;106069;1278;138639;-69
2023/03/04 16:31:13;;;;;;;32.70;15.50;;;;;;;0.85;80.74;97962.60;106842;1283;23281;-69
2023/03/04 16:33:41;;;;;;;39.90;16.90;;;;;;;0.86;80.73;97965.25;106228;1287;26680;-69
